Terminal Aerodrome Forecast
Issued by NWS Charleston, WV

Current Version | Previous Version | Graphics & Text | Print | Product List | Glossary On
Versions: 1 2 3 4 5 6 7 8 9 10 11 12 13 14 15 16 17 18 19 20 21 22 23 24 25 26
000
FTUS41 KRLX 132219 AAA
TAFPKB
TAF AMD
KPKB 132219Z 1322/1418 03005KT P6SM -RA OVC045
     FM140600 06006KT 5SM -RA OVC035
     FM140800 05006KT 5SM -FZRA OVC015
     FM140900 05006KT 2SM -FZRA OVC008
     FM141100 05005KT 2SM -FZRA OVC004
     FM141500 VRB03KT 4SM -RA OVC004=

USA.gov is the U.S. government's official web portal to all federal, state and local government web resources and services.